sensor_id;sensor_type;location;lat;lon;timestamp;pressure;altitude;pressure_sealevel;temperature;humidity
70217;BME280;65567;55.684;37.570;2024-01-15T00:01:30;97104.34;;;-6.94;73.48
70217;BME280;65567;55.684;37.570;2024-01-15T00:03:56;97107.59;;;-6.85;73.95
70217;BME280;65567;55.684;37.570;2024-01-15T00:06:22;97106.13;;;-7.00;73.83
70217;BME280;65567;55.684;37.570;2024-01-15T00:08:47;97088.47;;;-7.10;74.62
70217;BME280;65567;55.684;37.570;2024-01-15T00:11:13;97104.75;;;-7.22;75.70
70217;BME280;65567;55.684;37.570;2024-01-15T00:13:39;97096.41;;;-7.31;76.22
70217;BME280;65567;55.684;37.570;2024-01-15T00:16:05;97101.44;;;-7.27;76.54
70217;BME280;65567;55.684;37.570;2024-01-15T00:18:31;97090.34;;;-7.20;76.43
70217;BME280;65567;55.684;37.570;2024-01-15T00:21:00;97099.41;;;-7.04;75.98
70217;BME280;65567;55.684;37.570;2024-01-15T00:23:25;97092.38;;;-6.89;74.92
70217;BME280;65567;55.684;37.570;2024-01-15T00:25:51;97092.16;;;-6.74;73.89
70217;BME280;65567;55.684;37.570;2024-01-15T00:28:17;97099.06;;;-6.82;73.95
70217;BME280;65567;55.684;37.570;2024-01-15T00:30:43;97083.09;;;-6.92;74.56
70217;BME280;65567;55.684;37.570;2024-01-15T00:33:09;97071.84;;;-6.77;73.85
70217;BME280;65567;55.684;37.570;2024-01-15T00:35:38;97079.44;;;-6.75;73.98
70217;BME280;65567;55.684;37.570;2024-01-15T00:38:04;97071.84;;;-6.77;73.85
70217;BME280;65567;55.684;37.570;2024-01-15T00:40:30;97086.34;;;-6.82;74.86
70217;BME280;65567;55.684;37.570;2024-01-15T00:42:55;97073.69;;;-6.85;74.88
70217;BME280;65567;55.684;37.570;2024-01-15T00:45:21;97072.50;;;-6.67;74.75
70217;BME280;65567;55.684;37.570;2024-01-15T00:47:48;97064.72;;;-6.56;73.48
70217;BME280;65567;55.684;37.570;2024-01-15T00:50:14;97074.94;;;-6.59;73.62
70217;BME280;65567;55.684;37.570;2024-01-15T00:52:40;97065.63;;;-6.62;74.23
70217;BME280;65567;55.684;37.570;2024-01-15T00:55:06;97066.50;;;-6.61;74.92
70217;BME280;65567;55.684;37.570;2024-01-15T00:57:32;97062.03;;;-6.49;74.40
70217;BME280;65567;55.684;37.570;2024-01-15T00:59:58;97060.34;;;-6.50;74.27
70217;BME280;65567;55.684;37.570;2024-01-15T01:02:24;97057.75;;;-6.48;73.98
70217;BME280;65567;55.684;37.570;2024-01-15T01:04:50;97050.53;;;-6.71;75.29
70217;BME280;65567;55.684;37.570;2024-01-15T01:07:16;97052.91;;;-6.62;75.85
70217;BME280;65567;55.684;37.570;2024-01-15T01:09:41;97047.06;;;-6.67;76.21
70217;BME280;65567;55.684;37.570;2024-01-15T01:12:08;97052.00;;;-6.59;75.66
70217;BME280;65567;55.684;37.570;2024-01-15T01:14:34;97047.28;;;-6.79;76.91
70217;BME280;65567;55.684;37.570;2024-01-15T01:16:59;97053.03;;;-6.70;77.08
70217;BME280;65567;55.684;37.570;2024-01-15T01:19:25;97039.22;;;-6.55;76.38
70217;BME280;65567;55.684;37.570;2024-01-15T01:21:51;97047.47;;;-6.42;75.75
70217;BME280;65567;55.684;37.570;2024-01-15T01:24:17;97034.16;;;-6.56;76.48
70217;BME280;65567;55.684;37.570;2024-01-15T01:26:43;97045.69;;;-6.37;75.42
70217;BME280;65567;55.684;37.570;2024-01-15T01:29:11;97038.66;;;-6.71;77.50
70217;BME280;65567;55.684;37.570;2024-01-15T01:31:42;97037.88;;;-6.76;78.68
70217;BME280;65567;55.684;37.570;2024-01-15T01:34:08;97030.09;;;-6.67;78.36
70217;BME280;65567;55.684;37.570;2024-01-15T01:36:34;97001.31;;;-6.72;78.01
70217;BME280;65567;55.684;37.570;2024-01-15T01:39:00;97018.81;;;-6.09;75.10
70217;BME280;65567;55.684;37.570;2024-01-15T01:41:26;97020.69;;;-6.18;75.87
70217;BME280;65567;55.684;37.570;2024-01-15T01:43:51;97024.66;;;-6.04;75.26
70217;BME280;65567;55.684;37.570;2024-01-15T01:46:19;97014.66;;;-6.13;75.36
70217;BME280;65567;55.684;37.570;2024-01-15T01:48:45;97021.63;;;-6.23;76.71
70217;BME280;65567;55.684;37.570;2024-01-15T01:51:11;97016.06;;;-5.99;76.03
70217;BME280;65567;55.684;37.570;2024-01-15T01:53:38;97012.88;;;-6.10;75.36
70217;BME280;65567;55.684;37.570;2024-01-15T01:56:04;97009.28;;;-6.00;75.28
70217;BME280;65567;55.684;37.570;2024-01-15T01:58:32;97002.16;;;-5.87;75.28
70217;BME280;65567;55.684;37.570;2024-01-15T02:00:59;97005.78;;;-5.95;75.23
70217;BME280;65567;55.684;37.570;2024-01-15T02:03:27;97014.38;;;-6.00;76.01
70217;BME280;65567;55.684;37.570;2024-01-15T02:05:53;96996.88;;;-5.76;75.11
70217;BME280;65567;55.684;37.570;2024-01-15T02:08:19;96999.50;;;-5.81;75.08
70217;BME280;65567;55.684;37.570;2024-01-15T02:10:45;96998.50;;;-5.73;74.78
70217;BME280;65567;55.684;37.570;2024-01-15T02:13:11;96993.56;;;-5.81;75.27
70217;BME280;65567;55.684;37.570;2024-01-15T02:15:37;96986.72;;;-5.41;74.12
70217;BME280;65567;55.684;37.570;2024-01-15T02:18:04;96995.53;;;-5.55;74.37
70217;BME280;65567;55.684;37.570;2024-01-15T02:20:32;96989.81;;;-5.28;72.64
70217;BME280;65567;55.684;37.570;2024-01-15T02:25:35;96998.09;;;-5.55;74.43
70217;BME280;65567;55.684;37.570;2024-01-15T02:28:01;96989.78;;;-5.65;74.60
70217;BME280;65567;55.684;37.570;2024-01-15T02:30:28;96992.38;;;-5.28;74.10
70217;BME280;65567;55.684;37.570;2024-01-15T02:32:55;97001.72;;;-5.65;74.59
70217;BME280;65567;55.684;37.570;2024-01-15T02:35:21;96962.94;;;-5.79;75.21
70217;BME280;65567;55.684;37.570;2024-01-15T02:37:47;96968.22;;;-5.87;75.72
70217;BME280;65567;55.684;37.570;2024-01-15T02:40:12;96992.50;;;-5.72;76.25
70217;BME280;65567;55.684;37.570;2024-01-15T02:42:38;96994.50;;;-5.48;75.29
70217;BME280;65567;55.684;37.570;2024-01-15T02:45:04;96998.34;;;-5.66;76.24
70217;BME280;65567;55.684;37.570;2024-01-15T02:47:30;96971.84;;;-5.60;75.75
70217;BME280;65567;55.684;37.570;2024-01-15T02:49:56;96994.41;;;-5.43;75.23
70217;BME280;65567;55.684;37.570;2024-01-15T02:52:22;96974.59;;;-5.32;75.25
70217;BME280;65567;55.684;37.570;2024-01-15T02:54:48;96985.75;;;-5.36;74.80
70217;BME280;65567;55.684;37.570;2024-01-15T02:57:14;96972.41;;;-5.47;76.12
70217;BME280;65567;55.684;37.570;2024-01-15T02:59:40;96977.94;;;-5.28;75.47
70217;BME280;65567;55.684;37.570;2024-01-15T03:02:09;96983.13;;;-4.96;74.46
70217;BME280;65567;55.684;37.570;2024-01-15T03:04:34;96985.84;;;-5.04;73.57
70217;BME280;65567;55.684;37.570;2024-01-15T03:07:01;96983.63;;;-5.18;74.70
70217;BME280;65567;55.684;37.570;2024-01-15T03:09:27;96980.50;;;-5.29;75.61
70217;BME280;65567;55.684;37.570;2024-01-15T03:11:53;96973.19;;;-5.45;76.77
70217;BME280;65567;55.684;37.570;2024-01-15T03:14:19;96978.06;;;-5.00;75.46
70217;BME280;65567;55.684;37.570;2024-01-15T03:16:46;96962.94;;;-5.06;74.89
70217;BME280;65567;55.684;37.570;2024-01-15T03:19:12;96969.53;;;-4.99;74.56
70217;BME280;65567;55.684;37.570;2024-01-15T03:21:38;96968.09;;;-5.09;75.47
70217;BME280;65567;55.684;37.570;2024-01-15T03:24:04;96974.97;;;-5.12;76.27
70217;BME280;65567;55.684;37.570;2024-01-15T03:26:30;96969.09;;;-5.15;76.95
70217;BME280;65567;55.684;37.570;2024-01-15T03:28:55;96966.19;;;-5.01;76.34
70217;BME280;65567;55.684;37.570;2024-01-15T03:31:21;96961.84;;;-4.97;75.81
70217;BME280;65567;55.684;37.570;2024-01-15T03:33:47;96970.94;;;-4.87;74.84
70217;BME280;65567;55.684;37.570;2024-01-15T03:36:13;96946.78;;;-4.73;73.54
70217;BME280;65567;55.684;37.570;2024-01-15T03:38:41;96956.75;;;-4.64;73.90
70217;BME280;65567;55.684;37.570;2024-01-15T03:41:07;96963.28;;;-4.55;73.40
70217;BME280;65567;55.684;37.570;2024-01-15T03:43:33;96938.88;;;-4.66;73.48
70217;BME280;65567;55.684;37.570;2024-01-15T03:46:00;96947.47;;;-4.37;72.62
70217;BME280;65567;55.684;37.570;2024-01-15T03:48:25;96941.28;;;-4.59;73.22
70217;BME280;65567;55.684;37.570;2024-01-15T03:50:54;96946.06;;;-4.47;73.28
70217;BME280;65567;55.684;37.570;2024-01-15T03:53:19;96951.00;;;-4.41;73.78
70217;BME280;65567;55.684;37.570;2024-01-15T03:55:45;96943.19;;;-4.36;72.44
70217;BME280;65567;55.684;37.570;2024-01-15T03:58:11;96946.72;;;-4.10;71.91
70217;BME280;65567;55.684;37.570;2024-01-15T04:00:37;96950.03;;;-3.78;70.96
70217;BME280;65567;55.684;37.570;2024-01-15T04:03:02;96951.75;;;-4.07;71.25
70217;BME280;65567;55.684;37.570;2024-01-15T04:05:28;96940.88;;;-4.14;72.23
70217;BME280;65567;55.684;37.570;2024-01-15T04:07:54;96945.09;;;-4.13;72.26
70217;BME280;65567;55.684;37.570;2024-01-15T04:10:20;96939.81;;;-3.78;71.25
70217;BME280;65567;55.684;37.570;2024-01-15T04:12:46;96933.41;;;-3.92;71.65
70217;BME280;65567;55.684;37.570;2024-01-15T04:15:12;96939.25;;;-3.88;71.11
70217;BME280;65567;55.684;37.570;2024-01-15T04:17:39;96945.78;;;-3.78;71.81
70217;BME280;65567;55.684;37.570;2024-01-15T04:20:05;96951.53;;;-3.71;71.13
70217;BME280;65567;55.684;37.570;2024-01-15T04:22:33;96936.47;;;-3.52;70.55
70217;BME280;65567;55.684;37.570;2024-01-15T04:24:58;96940.63;;;-3.23;68.85
70217;BME280;65567;55.684;37.570;2024-01-15T04:27:24;96931.03;;;-3.70;70.03
70217;BME280;65567;55.684;37.570;2024-01-15T04:29:50;96933.91;;;-4.09;72.67
70217;BME280;65567;55.684;37.570;2024-01-15T04:32:16;96929.50;;;-4.34;74.62
70217;BME280;65567;55.684;37.570;2024-01-15T04:34:43;96930.06;;;-4.54;76.42
70217;BME280;65567;55.684;37.570;2024-01-15T04:37:09;96931.88;;;-4.27;76.12
70217;BME280;65567;55.684;37.570;2024-01-15T04:39:35;96931.25;;;-4.06;74.73
70217;BME280;65567;55.684;37.570;2024-01-15T04:42:04;96913.25;;;-4.31;75.40
70217;BME280;65567;55.684;37.570;2024-01-15T04:44:29;96935.78;;;-4.45;76.31
70217;BME280;65567;55.684;37.570;2024-01-15T04:46:55;96930.78;;;-4.50;77.27
70217;BME280;65567;55.684;37.570;2024-01-15T04:49:22;96933.13;;;-4.41;76.82
70217;BME280;65567;55.684;37.570;2024-01-15T04:51:48;96929.16;;;-4.51;77.97
70217;BME280;65567;55.684;37.570;2024-01-15T04:54:14;96937.03;;;-4.59;78.73
70217;BME280;65567;55.684;37.570;2024-01-15T04:56:46;96933.28;;;-4.47;78.83
70217;BME280;65567;55.684;37.570;2024-01-15T04:59:13;96920.34;;;-4.41;77.99
70217;BME280;65567;55.684;37.570;2024-01-15T05:01:40;96930.78;;;-4.50;79.26
70217;BME280;65567;55.684;37.570;2024-01-15T05:04:05;96909.63;;;-4.24;77.99
70217;BME280;65567;55.684;37.570;2024-01-15T05:06:31;96928.69;;;-4.06;76.72
70217;BME280;65567;55.684;37.570;2024-01-15T05:08:57;96929.28;;;-4.26;78.42
70217;BME280;65567;55.684;37.570;2024-01-15T05:11:23;96925.56;;;-4.16;78.22
70217;BME280;65567;55.684;37.570;2024-01-15T05:13:49;96924.91;;;-4.22;78.81
70217;BME280;65567;55.684;37.570;2024-01-15T05:16:15;96924.53;;;-4.10;78.57
70217;BME280;65567;55.684;37.570;2024-01-15T05:18:41;96925.88;;;-3.96;77.41
70217;BME280;65567;55.684;37.570;2024-01-15T05:21:09;96913.50;;;-4.10;77.66
70217;BME280;65567;55.684;37.570;2024-01-15T05:23:35;96919.16;;;-4.01;77.64
70217;BME280;65567;55.684;37.570;2024-01-15T05:26:01;96922.16;;;-4.15;78.98
70217;BME280;65567;55.684;37.570;2024-01-15T05:28:28;96922.31;;;-4.21;79.19
70217;BME280;65567;55.684;37.570;2024-01-15T05:30:54;96921.44;;;-4.20;79.85
70217;BME280;65567;55.684;37.570;2024-01-15T05:33:22;96924.28;;;-4.31;80.42
70217;BME280;65567;55.684;37.570;2024-01-15T05:35:51;96867.47;;;-4.69;81.16
70217;BME280;65567;55.684;37.570;2024-01-15T05:38:18;96927.38;;;-4.49;82.33
70217;BME280;65567;55.684;37.570;2024-01-15T05:40:43;96923.69;;;-4.39;82.30
70217;BME280;65567;55.684;37.570;2024-01-15T05:43:09;96923.34;;;-4.26;82.38
70217;BME280;65567;55.684;37.570;2024-01-15T05:45:37;96924.22;;;-4.27;82.04
70217;BME280;65567;55.684;37.570;2024-01-15T05:48:03;96926.81;;;-4.01;80.21
70217;BME280;65567;55.684;37.570;2024-01-15T05:50:32;96931.00;;;-3.98;80.01
70217;BME280;65567;55.684;37.570;2024-01-15T05:52:58;96928.09;;;-3.86;79.38
70217;BME280;65567;55.684;37.570;2024-01-15T05:55:23;96922.53;;;-3.99;79.64
70217;BME280;65567;55.684;37.570;2024-01-15T05:57:49;96928.22;;;-3.62;78.19
70217;BME280;65567;55.684;37.570;2024-01-15T06:00:15;96923.13;;;-3.90;79.76
70217;BME280;65567;55.684;37.570;2024-01-15T06:02:41;96927.47;;;-3.92;80.47
70217;BME280;65567;55.684;37.570;2024-01-15T06:05:07;96926.75;;;-3.97;80.31
70217;BME280;65567;55.684;37.570;2024-01-15T06:07:35;96932.25;;;-3.82;79.37
70217;BME280;65567;55.684;37.570;2024-01-15T06:10:02;96871.78;;;-4.11;79.89
70217;BME280;65567;55.684;37.570;2024-01-15T06:12:28;96928.78;;;-3.52;79.15
70217;BME280;65567;55.684;37.570;2024-01-15T06:14:54;96926.94;;;-3.49;77.62
70217;BME280;65567;55.684;37.570;2024-01-15T06:17:20;96917.69;;;-3.53;79.77
70217;BME280;65567;55.684;37.570;2024-01-15T06:19:45;96928.09;;;-3.57;80.10
70217;BME280;65567;55.684;37.570;2024-01-15T06:22:11;96919.53;;;-3.56;80.00
70217;BME280;65567;55.684;37.570;2024-01-15T06:24:37;96924.91;;;-3.66;80.30
70217;BME280;65567;55.684;37.570;2024-01-15T06:27:03;96910.88;;;-3.52;79.15
70217;BME280;65567;55.684;37.570;2024-01-15T06:29:30;96925.38;;;-3.81;81.03
70217;BME280;65567;55.684;37.570;2024-01-15T06:31:56;96926.88;;;-3.74;81.70
70217;BME280;65567;55.684;37.570;2024-01-15T06:34:21;96923.44;;;-3.73;81.60
70217;BME280;65567;55.684;37.570;2024-01-15T06:36:47;96919.38;;;-3.52;82.00
70217;BME280;65567;55.684;37.570;2024-01-15T06:39:13;96918.75;;;-3.58;81.27
70217;BME280;65567;55.684;37.570;2024-01-15T06:41:39;96918.22;;;-3.70;82.51
70217;BME280;65567;55.684;37.570;2024-01-15T06:44:12;96906.72;;;-3.83;82.90
70217;BME280;65567;55.684;37.570;2024-01-15T06:46:45;96890.38;;;-3.79;81.78
70217;BME280;65567;55.684;37.570;2024-01-15T06:49:11;96938.84;;;-3.47;82.13
70217;BME280;65567;55.684;37.570;2024-01-15T06:51:38;96935.72;;;-3.29;81.62
70217;BME280;65567;55.684;37.570;2024-01-15T06:54:04;96933.06;;;-3.26;80.97
70217;BME280;65567;55.684;37.570;2024-01-15T06:56:30;96936.00;;;-3.38;82.16
70217;BME280;65567;55.684;37.570;2024-01-15T06:58:56;96933.25;;;-3.32;82.45
70217;BME280;65567;55.684;37.570;2024-01-15T07:01:22;96919.50;;;-3.03;80.13
70217;BME280;65567;55.684;37.570;2024-01-15T07:03:48;96931.31;;;-2.99;79.68
70217;BME280;65567;55.684;37.570;2024-01-15T07:06:14;96928.69;;;-3.22;81.26
70217;BME280;65567;55.684;37.570;2024-01-15T07:08:40;96930.94;;;-2.88;80.04
70217;BME280;65567;55.684;37.570;2024-01-15T07:11:07;96929.22;;;-2.87;79.91
70217;BME280;65567;55.684;37.570;2024-01-15T07:13:34;96927.00;;;-2.96;80.25
70217;BME280;65567;55.684;37.570;2024-01-15T07:16:01;96920.34;;;-2.77;80.52
70217;BME280;65567;55.684;37.570;2024-01-15T07:18:27;96921.88;;;-2.96;80.63
70217;BME280;65567;55.684;37.570;2024-01-15T07:20:52;96918.38;;;-2.95;81.41
70217;BME280;65567;55.684;37.570;2024-01-15T07:23:18;96927.94;;;-3.01;81.02
70217;BME280;65567;55.684;37.570;2024-01-15T07:25:44;96926.69;;;-2.89;81.48
70217;BME280;65567;55.684;37.570;2024-01-15T07:28:10;96921.63;;;-2.90;82.01
70217;BME280;65567;55.684;37.570;2024-01-15T07:30:39;96898.84;;;-3.23;82.98
70217;BME280;65567;55.684;37.570;2024-01-15T07:33:05;96928.47;;;-2.66;81.66
70217;BME280;65567;55.684;37.570;2024-01-15T07:35:31;96923.03;;;-2.82;81.48
70217;BME280;65567;55.684;37.570;2024-01-15T07:37:57;96925.56;;;-2.80;82.85
70217;BME280;65567;55.684;37.570;2024-01-15T07:40:26;96924.41;;;-2.71;81.35
70217;BME280;65567;55.684;37.570;2024-01-15T07:42:52;96921.47;;;-2.60;81.30
70217;BME280;65567;55.684;37.570;2024-01-15T07:45:18;96921.25;;;-2.30;80.17
70217;BME280;65567;55.684;37.570;2024-01-15T07:47:44;96923.97;;;-2.11;78.08
70217;BME280;65567;55.684;37.570;2024-01-15T07:50:10;96914.78;;;-2.41;79.81
70217;BME280;65567;55.684;37.570;2024-01-15T07:52:36;96930.44;;;-2.49;81.39
70217;BME280;65567;55.684;37.570;2024-01-15T07:55:02;96886.78;;;-2.69;80.61
70217;BME280;65567;55.684;37.570;2024-01-15T07:57:30;96887.25;;;-2.59;81.08
70217;BME280;65567;55.684;37.570;2024-01-15T08:00:00;96912.69;;;-2.53;81.64
70217;BME280;65567;55.684;37.570;2024-01-15T08:02:27;96913.50;;;-2.53;82.49
70217;BME280;65567;55.684;37.570;2024-01-15T08:04:52;96925.16;;;-2.20;80.83
70217;BME280;65567;55.684;37.570;2024-01-15T08:07:18;96922.75;;;-2.01;79.99
70217;BME280;65567;55.684;37.570;2024-01-15T08:09:44;96919.69;;;-2.11;80.37
70217;BME280;65567;55.684;37.570;2024-01-15T08:12:12;96919.63;;;-2.09;81.76
70217;BME280;65567;55.684;37.570;2024-01-15T08:14:38;96917.97;;;-1.88;79.83
70217;BME280;65567;55.684;37.570;2024-01-15T08:17:03;96921.28;;;-2.08;80.42
70217;BME280;65567;55.684;37.570;2024-01-15T08:19:29;96916.03;;;-2.27;81.64
70217;BME280;65567;55.684;37.570;2024-01-15T08:21:55;96917.91;;;-2.09;81.18
70217;BME280;65567;55.684;37.570;2024-01-15T08:24:21;96922.53;;;-2.19;81.83
70217;BME280;65567;55.684;37.570;2024-01-15T08:26:46;96913.28;;;-1.77;80.96
70217;BME280;65567;55.684;37.570;2024-01-15T08:29:12;96914.94;;;-1.76;79.35
70217;BME280;65567;55.684;37.570;2024-01-15T08:31:38;96910.38;;;-2.13;81.09
70217;BME280;65567;55.684;37.570;2024-01-15T08:34:04;96920.44;;;-1.63;80.26
70217;BME280;65567;55.684;37.570;2024-01-15T08:36:30;96916.94;;;-1.40;78.10
70217;BME280;65567;55.684;37.570;2024-01-15T08:38:56;96929.94;;;-1.65;79.70
70217;BME280;65567;55.684;37.570;2024-01-15T08:41:22;96920.66;;;-1.69;80.29
70217;BME280;65567;55.684;37.570;2024-01-15T08:43:51;96915.72;;;-1.96;81.87
70217;BME280;65567;55.684;37.570;2024-01-15T08:46:18;96926.88;;;-1.75;81.30
70217;BME280;65567;55.684;37.570;2024-01-15T08:48:44;96904.56;;;-1.73;80.59
70217;BME280;65567;55.684;37.570;2024-01-15T08:51:10;96920.13;;;-1.55;79.26
70217;BME280;65567;55.684;37.570;2024-01-15T08:53:35;96920.19;;;-1.79;80.91
70217;BME280;65567;55.684;37.570;2024-01-15T08:56:01;96920.53;;;-1.44;79.91
70217;BME280;65567;55.684;37.570;2024-01-15T08:58:27;96917.97;;;-1.44;79.44
70217;BME280;65567;55.684;37.570;2024-01-15T09:00:53;96915.66;;;-1.50;79.77
70217;BME280;65567;55.684;37.570;2024-01-15T09:03:19;96924.00;;;-1.45;80.07
70217;BME280;65567;55.684;37.570;2024-01-15T09:05:47;96924.16;;;-1.07;78.24
70217;BME280;65567;55.684;37.570;2024-01-15T09:08:15;96900.00;;;-1.44;78.03
70217;BME280;65567;55.684;37.570;2024-01-15T09:10:41;96921.06;;;-1.36;78.75
70217;BME280;65567;55.684;37.570;2024-01-15T09:13:06;96919.63;;;-1.21;78.88
70217;BME280;65567;55.684;37.570;2024-01-15T09:15:33;96917.81;;;-0.98;76.88
70217;BME280;65567;55.684;37.570;2024-01-15T09:17:59;96912.19;;;-1.06;77.00
70217;BME280;65567;55.684;37.570;2024-01-15T09:20:26;96921.72;;;-1.30;79.11
70217;BME280;65567;55.684;37.570;2024-01-15T09:22:52;96919.41;;;-1.16;78.24
70217;BME280;65567;55.684;37.570;2024-01-15T09:25:19;96899.41;;;-1.51;79.49
70217;BME280;65567;55.684;37.570;2024-01-15T09:27:44;96916.84;;;-0.95;78.10
70217;BME280;65567;55.684;37.570;2024-01-15T09:30:10;96899.44;;;-0.89;77.24
70217;BME280;65567;55.684;37.570;2024-01-15T09:32:37;96909.66;;;-0.87;78.62
70217;BME280;65567;55.684;37.570;2024-01-15T09:35:03;96906.19;;;-0.86;77.93
70217;BME280;65567;55.684;37.570;2024-01-15T09:37:29;96906.31;;;-0.89;77.57
70217;BME280;65567;55.684;37.570;2024-01-15T09:39:57;96914.28;;;-1.16;79.50
70217;BME280;65567;55.684;37.570;2024-01-15T09:42:27;96923.13;;;-0.82;77.92
70217;BME280;65567;55.684;37.570;2024-01-15T09:44:54;96915.19;;;-0.96;78.89
70217;BME280;65567;55.684;37.570;2024-01-15T09:47:20;96913.88;;;-0.65;78.10
70217;BME280;65567;55.684;37.570;2024-01-15T09:49:47;96914.19;;;-0.92;78.38
70217;BME280;65567;55.684;37.570;2024-01-15T09:52:14;96915.31;;;-0.79;78.98
70217;BME280;65567;55.684;37.570;2024-01-15T09:54:43;96909.94;;;-0.73;77.90
70217;BME280;65567;55.684;37.570;2024-01-15T09:57:09;96923.66;;;-0.53;76.81
70217;BME280;65567;55.684;37.570;2024-01-15T09:59:36;96916.84;;;-0.54;75.95
70217;BME280;65567;55.684;37.570;2024-01-15T10:02:03;96931.84;;;-0.45;76.34
70217;BME280;65567;55.684;37.570;2024-01-15T10:04:32;96921.53;;;-0.64;75.78
70217;BME280;65567;55.684;37.570;2024-01-15T10:07:00;96915.63;;;-0.87;77.08
70217;BME280;65567;55.684;37.570;2024-01-15T10:09:26;96918.38;;;-0.71;77.26
70217;BME280;65567;55.684;37.570;2024-01-15T10:11:52;96895.72;;;-0.81;76.28
70217;BME280;65567;55.684;37.570;2024-01-15T10:14:18;96925.06;;;-0.87;77.98
70217;BME280;65567;55.684;37.570;2024-01-15T10:16:43;96926.63;;;-0.83;77.76
70217;BME280;65567;55.684;37.570;2024-01-15T10:19:09;96942.31;;;-0.69;77.45
70217;BME280;65567;55.684;37.570;2024-01-15T10:21:35;96932.13;;;-0.72;76.66
70217;BME280;65567;55.684;37.570;2024-01-15T10:24:03;96930.97;;;-1.06;78.82
70217;BME280;65567;55.684;37.570;2024-01-15T10:26:30;96925.22;;;-0.90;78.92
70217;BME280;65567;55.684;37.570;2024-01-15T10:28:56;96923.41;;;-0.88;78.41
70217;BME280;65567;55.684;37.570;2024-01-15T10:31:22;96915.00;;;-0.52;77.16
70217;BME280;65567;55.684;37.570;2024-01-15T10:33:48;96924.22;;;-0.46;76.22
70217;BME280;65567;55.684;37.570;2024-01-15T10:36:18;96924.31;;;-0.69;76.98
70217;BME280;65567;55.684;37.570;2024-01-15T10:38:44;96926.88;;;-0.89;78.63
70217;BME280;65567;55.684;37.570;2024-01-15T10:41:11;96933.63;;;-0.87;79.76
70217;BME280;65567;55.684;37.570;2024-01-15T10:43:37;96925.53;;;-0.77;78.35
70217;BME280;65567;55.684;37.570;2024-01-15T10:46:03;96908.97;;;-0.70;79.10
70217;BME280;65567;55.684;37.570;2024-01-15T10:48:29;96919.34;;;-0.53;76.69
70217;BME280;65567;55.684;37.570;2024-01-15T10:50:57;96912.59;;;-0.76;78.72
70217;BME280;65567;55.684;37.570;2024-01-15T10:53:26;96907.38;;;-0.93;79.22
70217;BME280;65567;55.684;37.570;2024-01-15T10:55:53;96915.59;;;-0.45;77.89
70217;BME280;65567;55.684;37.570;2024-01-15T10:58:20;96915.88;;;-0.52;77.60
70217;BME280;65567;55.684;37.570;2024-01-15T11:00:49;96912.31;;;-0.49;76.97
70217;BME280;65567;55.684;37.570;2024-01-15T11:03:15;96919.56;;;-0.78;79.18
70217;BME280;65567;55.684;37.570;2024-01-15T11:05:43;96919.31;;;-0.92;79.75
70217;BME280;65567;55.684;37.570;2024-01-15T11:08:12;96912.19;;;-1.06;80.83
70217;BME280;65567;55.684;37.570;2024-01-15T11:10:50;96922.25;;;-0.81;79.73
70217;BME280;65567;55.684;37.570;2024-01-15T11:15:58;96909.38;;;-0.60;78.65
70217;BME280;65567;55.684;37.570;2024-01-15T11:18:29;96914.84;;;-0.68;78.34
70217;BME280;65567;55.684;37.570;2024-01-15T11:23:49;96894.63;;;-0.36;77.18
70217;BME280;65567;55.684;37.570;2024-01-15T11:26:35;96902.31;;;-0.17;74.93
70217;BME280;65567;55.684;37.570;2024-01-15T11:29:28;96907.44;;;-0.55;76.77
70217;BME280;65567;55.684;37.570;2024-01-15T11:34:20;96889.19;;;-0.49;77.60
70217;BME280;65567;55.684;37.570;2024-01-15T11:42:04;96895.03;;;-0.26;76.77
70217;BME280;65567;55.684;37.570;2024-01-15T11:44:30;96902.81;;;-0.28;76.24
70217;BME280;65567;55.684;37.570;2024-01-15T11:47:00;96900.31;;;-0.29;75.60
70217;BME280;65567;55.684;37.570;2024-01-15T11:52:01;96899.84;;;0.01;73.82
70217;BME280;65567;55.684;37.570;2024-01-15T11:54:32;96877.59;;;-0.39;74.91
70217;BME280;65567;55.684;37.570;2024-01-15T11:57:00;96901.84;;;-0.25;75.22
70217;BME280;65567;55.684;37.570;2024-01-15T11:59:29;96911.84;;;-0.38;75.77
70217;BME280;65567;55.684;37.570;2024-01-15T12:01:56;96901.97;;;-0.47;76.54
70217;BME280;65567;55.684;37.570;2024-01-15T12:04:22;96895.16;;;-0.88;78.31
70217;BME280;65567;55.684;37.570;2024-01-15T12:06:48;96900.03;;;-1.03;80.13
70217;BME280;65567;55.684;37.570;2024-01-15T12:09:14;96906.50;;;-0.73;79.24
70217;BME280;65567;55.684;37.570;2024-01-15T12:11:45;96899.44;;;-1.09;80.93
70217;BME280;65567;55.684;37.570;2024-01-15T12:14:12;96896.69;;;-1.25;82.23
70217;BME280;65567;55.684;37.570;2024-01-15T12:16:38;96911.47;;;-0.89;80.57
70217;BME280;65567;55.684;37.570;2024-01-15T12:19:04;96909.94;;;-0.93;81.02
70217;BME280;65567;55.684;37.570;2024-01-15T12:21:30;96906.31;;;-0.69;80.39
70217;BME280;65567;55.684;37.570;2024-01-15T12:23:56;96902.78;;;-0.47;77.80
70217;BME280;65567;55.684;37.570;2024-01-15T12:26:22;96907.38;;;-0.54;78.02
70217;BME280;65567;55.684;37.570;2024-01-15T12:28:50;96900.06;;;-0.63;78.33
70217;BME280;65567;55.684;37.570;2024-01-15T12:31:16;96908.03;;;-0.69;79.23
70217;BME280;65567;55.684;37.570;2024-01-15T12:33:42;96896.69;;;-0.44;78.38
70217;BME280;65567;55.684;37.570;2024-01-15T12:36:08;96906.91;;;-0.43;77.99
70217;BME280;65567;55.684;37.570;2024-01-15T12:38:34;96905.28;;;-0.64;79.61
70217;BME280;65567;55.684;37.570;2024-01-15T12:41:00;96913.25;;;-0.12;77.58
70217;BME280;65567;55.684;37.570;2024-01-15T12:43:26;96907.34;;;-0.14;75.95
70217;BME280;65567;55.684;37.570;2024-01-15T12:45:53;96911.81;;;-0.57;78.21
70217;BME280;65567;55.684;37.570;2024-01-15T12:48:18;96895.09;;;-0.87;80.56
70217;BME280;65567;55.684;37.570;2024-01-15T12:50:44;96909.41;;;-0.81;80.82
70217;BME280;65567;55.684;37.570;2024-01-15T12:53:11;96897.72;;;-0.88;82.40
70217;BME280;65567;55.684;37.570;2024-01-15T12:55:37;96900.22;;;-0.66;80.35
70217;BME280;65567;55.684;37.570;2024-01-15T12:58:02;96902.22;;;-0.73;81.15
70217;BME280;65567;55.684;37.570;2024-01-15T13:00:29;96909.72;;;-0.28;78.62
70217;BME280;65567;55.684;37.570;2024-01-15T13:02:57;96913.88;;;-0.65;80.55
70217;BME280;65567;55.684;37.570;2024-01-15T13:05:23;96915.50;;;-0.84;81.85